sensor_id;sensor_type;location;lat;lon;timestamp;temperature;humidity
35027;DHT22;60696;51.426;6.934;2023-06-14T04:01:28;16.40;61.60
35027;DHT22;60696;51.426;6.934;2023-06-14T04:03:57;16.30;62.30
35027;DHT22;60696;51.426;6.934;2023-06-14T04:06:23;16.20;62.20
35027;DHT22;60696;51.426;6.934;2023-06-14T04:08:51;16.20;61.70
35027;DHT22;60696;51.426;6.934;2023-06-14T04:11:17;16.20;62.10
35027;DHT22;60696;51.426;6.934;2023-06-14T04:13:43;16.30;62.50
35027;DHT22;60696;51.426;6.934;2023-06-14T04:16:09;16.40;62.10
35027;DHT22;60696;51.426;6.934;2023-06-14T04:18:35;16.40;62.40
35027;DHT22;60696;51.426;6.934;2023-06-14T04:21:00;16.60;62.90
35027;DHT22;60696;51.426;6.934;2023-06-14T04:23:26;16.60;61.30
35027;DHT22;60696;51.426;6.934;2023-06-14T04:25:53;16.60;61.70
35027;DHT22;60696;51.426;6.934;2023-06-14T04:28:19;16.60;60.90
35027;DHT22;60696;51.426;6.934;2023-06-14T04:30:45;16.60;60.80
35027;DHT22;60696;51.426;6.934;2023-06-14T04:33:12;16.60;60.80
35027;DHT22;60696;51.426;6.934;2023-06-14T04:35:38;16.60;60.90
35027;DHT22;60696;51.426;6.934;2023-06-14T04:38:06;16.60;60.30
35027;DHT22;60696;51.426;6.934;2023-06-14T04:40:35;16.70;61.10
35027;DHT22;60696;51.426;6.934;2023-06-14T04:43:01;16.80;59.90
35027;DHT22;60696;51.426;6.934;2023-06-14T04:45:30;17.10;59.80
35027;DHT22;60696;51.426;6.934;2023-06-14T04:47:58;17.80;57.50
35027;DHT22;60696;51.426;6.934;2023-06-14T04:50:24;18.30;55.60
35027;DHT22;60696;51.426;6.934;2023-06-14T04:52:50;18.90;54.10
35027;DHT22;60696;51.426;6.934;2023-06-14T04:55:17;19.30;52.30
35027;DHT22;60696;51.426;6.934;2023-06-14T04:57:44;19.90;50.60
35027;DHT22;60696;51.426;6.934;2023-06-14T05:00:10;20.10;50.20
35027;DHT22;60696;51.426;6.934;2023-06-14T05:02:37;20.60;48.30
35027;DHT22;60696;51.426;6.934;2023-06-14T05:05:03;20.30;48.40
35027;DHT22;60696;51.426;6.934;2023-06-14T05:07:32;20.60;48.30
35027;DHT22;60696;51.426;6.934;2023-06-14T05:09:59;21.00;46.30
35027;DHT22;60696;51.426;6.934;2023-06-14T05:12:25;20.80;46.30
35027;DHT22;60696;51.426;6.934;2023-06-14T05:14:50;20.70;46.60
35027;DHT22;60696;51.426;6.934;2023-06-14T05:17:16;21.00;46.40
35027;DHT22;60696;51.426;6.934;2023-06-14T05:19:42;21.00;46.20
35027;DHT22;60696;51.426;6.934;2023-06-14T05:22:08;21.30;46.00
35027;DHT22;60696;51.426;6.934;2023-06-14T05:24:34;21.80;44.10
35027;DHT22;60696;51.426;6.934;2023-06-14T05:27:00;22.00;44.50
35027;DHT22;60696;51.426;6.934;2023-06-14T05:29:26;21.70;43.10
35027;DHT22;60696;51.426;6.934;2023-06-14T05:31:52;22.10;43.40
35027;DHT22;60696;51.426;6.934;2023-06-14T05:34:18;22.10;43.70
35027;DHT22;60696;51.426;6.934;2023-06-14T05:36:44;22.30;43.20
35027;DHT22;60696;51.426;6.934;2023-06-14T05:39:10;22.60;42.90
35027;DHT22;60696;51.426;6.934;2023-06-14T05:41:35;23.10;41.80
35027;DHT22;60696;51.426;6.934;2023-06-14T05:44:01;23.10;41.40
35027;DHT22;60696;51.426;6.934;2023-06-14T05:46:27;23.30;41.20
35027;DHT22;60696;51.426;6.934;2023-06-14T05:48:54;22.70;41.60
35027;DHT22;60696;51.426;6.934;2023-06-14T05:51:20;23.10;41.20
35027;DHT22;60696;51.426;6.934;2023-06-14T05:53:46;23.00;40.90
35027;DHT22;60696;51.426;6.934;2023-06-14T05:56:12;23.20;40.90
35027;DHT22;60696;51.426;6.934;2023-06-14T05:58:39;22.60;43.40
35027;DHT22;60696;51.426;6.934;2023-06-14T06:01:04;24.30;39.30
35027;DHT22;60696;51.426;6.934;2023-06-14T06:03:30;24.50;37.40
35027;DHT22;60696;51.426;6.934;2023-06-14T06:05:56;23.60;38.40
35027;DHT22;60696;51.426;6.934;2023-06-14T06:08:21;23.50;40.00
35027;DHT22;60696;51.426;6.934;2023-06-14T06:10:47;24.00;39.20
35027;DHT22;60696;51.426;6.934;2023-06-14T06:13:13;23.40;39.60
35027;DHT22;60696;51.426;6.934;2023-06-14T06:15:38;24.20;39.40
35027;DHT22;60696;51.426;6.934;2023-06-14T06:18:04;25.20;38.80
35027;DHT22;60696;51.426;6.934;2023-06-14T06:20:30;25.40;37.30
35027;DHT22;60696;51.426;6.934;2023-06-14T06:23:00;24.70;37.70
35027;DHT22;60696;51.426;6.934;2023-06-14T06:25:26;25.10;38.20
35027;DHT22;60696;51.426;6.934;2023-06-14T06:27:53;25.10;36.90
35027;DHT22;60696;51.426;6.934;2023-06-14T06:30:19;24.80;37.10
35027;DHT22;60696;51.426;6.934;2023-06-14T06:32:45;24.60;37.80
35027;DHT22;60696;51.426;6.934;2023-06-14T06:35:11;25.30;36.60
35027;DHT22;60696;51.426;6.934;2023-06-14T06:37:38;24.50;37.30
35027;DHT22;60696;51.426;6.934;2023-06-14T06:40:04;24.10;37.80
35027;DHT22;60696;51.426;6.934;2023-06-14T06:42:31;24.40;37.10
35027;DHT22;60696;51.426;6.934;2023-06-14T06:44:57;24.00;38.30
35027;DHT22;60696;51.426;6.934;2023-06-14T06:47:23;24.90;37.80
35027;DHT22;60696;51.426;6.934;2023-06-14T06:49:48;25.00;37.50
35027;DHT22;60696;51.426;6.934;2023-06-14T06:52:14;25.60;35.30
35027;DHT22;60696;51.426;6.934;2023-06-14T06:54:39;25.30;34.90
35027;DHT22;60696;51.426;6.934;2023-06-14T06:57:05;25.20;34.20
35027;DHT22;60696;51.426;6.934;2023-06-14T06:59:33;25.20;36.70
35027;DHT22;60696;51.426;6.934;2023-06-14T07:01:58;25.70;34.90
35027;DHT22;60696;51.426;6.934;2023-06-14T07:04:24;26.00;34.10
35027;DHT22;60696;51.426;6.934;2023-06-14T07:06:50;25.90;34.80
35027;DHT22;60696;51.426;6.934;2023-06-14T07:09:16;26.50;34.40
35027;DHT22;60696;51.426;6.934;2023-06-14T07:11:43;26.70;33.10
35027;DHT22;60696;51.426;6.934;2023-06-14T07:14:08;25.70;34.20
35027;DHT22;60696;51.426;6.934;2023-06-14T07:16:34;25.40;34.80
35027;DHT22;60696;51.426;6.934;2023-06-14T07:19:02;25.80;34.30
35027;DHT22;60696;51.426;6.934;2023-06-14T07:21:27;25.80;34.50
35027;DHT22;60696;51.426;6.934;2023-06-14T07:23:53;26.30;36.30
35027;DHT22;60696;51.426;6.934;2023-06-14T07:26:19;26.60;34.30
35027;DHT22;60696;51.426;6.934;2023-06-14T07:28:46;27.40;34.10
35027;DHT22;60696;51.426;6.934;2023-06-14T07:31:13;27.30;33.00
35027;DHT22;60696;51.426;6.934;2023-06-14T07:33:40;28.10;32.00
35027;DHT22;60696;51.426;6.934;2023-06-14T07:36:06;27.20;32.70
35027;DHT22;60696;51.426;6.934;2023-06-14T07:38:31;27.00;34.30
35027;DHT22;60696;51.426;6.934;2023-06-14T07:40:57;26.70;33.00
35027;DHT22;60696;51.426;6.934;2023-06-14T07:43:23;26.40;33.00
35027;DHT22;60696;51.426;6.934;2023-06-14T07:45:48;27.20;32.20
35027;DHT22;60696;51.426;6.934;2023-06-14T07:48:14;27.40;32.80
35027;DHT22;60696;51.426;6.934;2023-06-14T07:50:40;27.40;32.40
35027;DHT22;60696;51.426;6.934;2023-06-14T07:53:06;27.40;31.70
35027;DHT22;60696;51.426;6.934;2023-06-14T07:55:32;27.30;31.30
35027;DHT22;60696;51.426;6.934;2023-06-14T07:58:02;26.70;32.90
35027;DHT22;60696;51.426;6.934;2023-06-14T08:00:28;26.60;33.50
35027;DHT22;60696;51.426;6.934;2023-06-14T08:02:53;27.20;32.70
35027;DHT22;60696;51.426;6.934;2023-06-14T08:05:24;27.20;33.00
35027;DHT22;60696;51.426;6.934;2023-06-14T08:07:50;26.80;32.90
35027;DHT22;60696;51.426;6.934;2023-06-14T08:10:16;26.40;33.80
35027;DHT22;60696;51.426;6.934;2023-06-14T08:12:41;27.20;33.90
35027;DHT22;60696;51.426;6.934;2023-06-14T08:15:07;27.70;33.30
35027;DHT22;60696;51.426;6.934;2023-06-14T08:17:33;27.60;34.20
35027;DHT22;60696;51.426;6.934;2023-06-14T08:19:59;27.40;33.00
35027;DHT22;60696;51.426;6.934;2023-06-14T08:22:25;28.20;32.60
35027;DHT22;60696;51.426;6.934;2023-06-14T08:24:53;28.00;33.30
35027;DHT22;60696;51.426;6.934;2023-06-14T08:27:20;28.10;33.10
35027;DHT22;60696;51.426;6.934;2023-06-14T08:29:45;27.90;31.30
35027;DHT22;60696;51.426;6.934;2023-06-14T08:32:12;27.70;32.00
35027;DHT22;60696;51.426;6.934;2023-06-14T08:34:37;27.50;34.40
35027;DHT22;60696;51.426;6.934;2023-06-14T08:37:03;28.70;33.70
35027;DHT22;60696;51.426;6.934;2023-06-14T08:39:29;28.90;31.20
35027;DHT22;60696;51.426;6.934;2023-06-14T08:41:54;28.60;30.90
35027;DHT22;60696;51.426;6.934;2023-06-14T08:44:22;27.70;31.60
35027;DHT22;60696;51.426;6.934;2023-06-14T08:46:48;28.30;32.80
35027;DHT22;60696;51.426;6.934;2023-06-14T08:49:16;27.50;32.50
35027;DHT22;60696;51.426;6.934;2023-06-14T08:51:43;27.90;32.60
35027;DHT22;60696;51.426;6.934;2023-06-14T08:54:10;28.30;31.20
35027;DHT22;60696;51.426;6.934;2023-06-14T08:56:37;28.60;32.30
35027;DHT22;60696;51.426;6.934;2023-06-14T08:59:04;28.10;31.60
35027;DHT22;60696;51.426;6.934;2023-06-14T09:01:34;28.00;31.30
35027;DHT22;60696;51.426;6.934;2023-06-14T09:04:00;27.40;32.10
35027;DHT22;60696;51.426;6.934;2023-06-14T09:06:26;26.50;33.50
35027;DHT22;60696;51.426;6.934;2023-06-14T09:08:54;26.20;33.50
35027;DHT22;60696;51.426;6.934;2023-06-14T09:11:20;25.70;34.40
35027;DHT22;60696;51.426;6.934;2023-06-14T09:13:46;26.40;34.10
35027;DHT22;60696;51.426;6.934;2023-06-14T09:16:12;26.90;34.00
35027;DHT22;60696;51.426;6.934;2023-06-14T09:18:40;27.10;34.20
35027;DHT22;60696;51.426;6.934;2023-06-14T09:21:11;26.50;33.70
35027;DHT22;60696;51.426;6.934;2023-06-14T09:23:38;25.40;34.20
35027;DHT22;60696;51.426;6.934;2023-06-14T09:26:16;24.90;34.50
35027;DHT22;60696;51.426;6.934;2023-06-14T09:28:47;25.00;34.60
35027;DHT22;60696;51.426;6.934;2023-06-14T09:31:14;25.40;35.70
35027;DHT22;60696;51.426;6.934;2023-06-14T09:33:45;25.60;34.20
35027;DHT22;60696;51.426;6.934;2023-06-14T09:36:24;25.20;33.60
35027;DHT22;60696;51.426;6.934;2023-06-14T09:38:58;25.40;34.10
35027;DHT22;60696;51.426;6.934;2023-06-14T09:41:31;25.40;36.00
35027;DHT22;60696;51.426;6.934;2023-06-14T09:43:59;25.60;34.60
35027;DHT22;60696;51.426;6.934;2023-06-14T09:46:27;24.70;35.40
35027;DHT22;60696;51.426;6.934;2023-06-14T09:48:53;25.20;35.50
35027;DHT22;60696;51.426;6.934;2023-06-14T09:51:20;24.80;35.00
35027;DHT22;60696;51.426;6.934;2023-06-14T09:53:49;24.30;36.40
35027;DHT22;60696;51.426;6.934;2023-06-14T09:56:26;23.80;37.70
35027;DHT22;60696;51.426;6.934;2023-06-14T09:58:59;23.70;37.00
35027;DHT22;60696;51.426;6.934;2023-06-14T10:01:31;23.50;37.70
35027;DHT22;60696;51.426;6.934;2023-06-14T10:04:07;24.00;37.90
35027;DHT22;60696;51.426;6.934;2023-06-14T10:06:37;24.20;36.30
35027;DHT22;60696;51.426;6.934;2023-06-14T10:09:04;24.20;36.80
35027;DHT22;60696;51.426;6.934;2023-06-14T10:11:31;23.80;37.40
35027;DHT22;60696;51.426;6.934;2023-06-14T10:13:57;23.50;37.90
35027;DHT22;60696;51.426;6.934;2023-06-14T10:24:32;24.20;37.10
35027;DHT22;60696;51.426;6.934;2023-06-14T10:26:59;23.80;35.00
35027;DHT22;60696;51.426;6.934;2023-06-14T10:29:25;23.20;36.40
35027;DHT22;60696;51.426;6.934;2023-06-14T10:31:56;23.30;37.10
35027;DHT22;60696;51.426;6.934;2023-06-14T10:34:23;23.70;36.50
35027;DHT22;60696;51.426;6.934;2023-06-14T10:37:13;24.20;37.60
35027;DHT22;60696;51.426;6.934;2023-06-14T10:39:44;24.60;36.10
35027;DHT22;60696;51.426;6.934;2023-06-14T10:42:13;24.60;35.90
35027;DHT22;60696;51.426;6.934;2023-06-14T10:44:50;24.30;35.70
35027;DHT22;60696;51.426;6.934;2023-06-14T10:47:29;23.90;35.70
35027;DHT22;60696;51.426;6.934;2023-06-14T10:50:04;23.40;36.80
35027;DHT22;60696;51.426;6.934;2023-06-14T10:52:42;23.60;38.50
35027;DHT22;60696;51.426;6.934;2023-06-14T10:55:18;23.70;37.30
35027;DHT22;60696;51.426;6.934;2023-06-14T10:57:51;22.90;37.90
35027;DHT22;60696;51.426;6.934;2023-06-14T11:00:22;23.30;39.00
35027;DHT22;60696;51.426;6.934;2023-06-14T11:10:59;23.30;38.20
35027;DHT22;60696;51.426;6.934;2023-06-14T11:13:27;23.10;38.00
35027;DHT22;60696;51.426;6.934;2023-06-14T11:15:54;23.20;38.60
35027;DHT22;60696;51.426;6.934;2023-06-14T11:18:22;23.10;40.30
35027;DHT22;60696;51.426;6.934;2023-06-14T11:20:50;23.30;39.20
35027;DHT22;60696;51.426;6.934;2023-06-14T11:23:16;22.90;39.70
35027;DHT22;60696;51.426;6.934;2023-06-14T11:25:41;22.60;40.30
35027;DHT22;60696;51.426;6.934;2023-06-14T11:28:07;22.60;41.30
35027;DHT22;60696;51.426;6.934;2023-06-14T11:30:33;23.00;40.20
35027;DHT22;60696;51.426;6.934;2023-06-14T11:32:58;23.30;41.10
35027;DHT22;60696;51.426;6.934;2023-06-14T11:35:25;23.70;40.50
35027;DHT22;60696;51.426;6.934;2023-06-14T11:37:55;23.70;39.50
35027;DHT22;60696;51.426;6.934;2023-06-14T11:40:24;23.40;40.10
35027;DHT22;60696;51.426;6.934;2023-06-14T11:42:50;23.60;39.50
35027;DHT22;60696;51.426;6.934;2023-06-14T11:45:16;23.30;39.40
35027;DHT22;60696;51.426;6.934;2023-06-14T11:47:41;23.10;40.40
35027;DHT22;60696;51.426;6.934;2023-06-14T11:50:08;23.00;41.00
35027;DHT22;60696;51.426;6.934;2023-06-14T11:52:36;23.30;42.40
35027;DHT22;60696;51.426;6.934;2023-06-14T11:55:02;23.10;42.10
35027;DHT22;60696;51.426;6.934;2023-06-14T11:57:31;23.00;40.90
35027;DHT22;60696;51.426;6.934;2023-06-14T11:59:58;23.40;42.20
35027;DHT22;60696;51.426;6.934;2023-06-14T12:02:24;23.80;41.40
35027;DHT22;60696;51.426;6.934;2023-06-14T12:04:50;23.60;39.60
35027;DHT22;60696;51.426;6.934;2023-06-14T12:07:17;23.20;41.60
35027;DHT22;60696;51.426;6.934;2023-06-14T12:12:22;23.00;41.80
35027;DHT22;60696;51.426;6.934;2023-06-14T12:14:50;22.70;42.00
35027;DHT22;60696;51.426;6.934;2023-06-14T12:17:17;23.20;40.70
35027;DHT22;60696;51.426;6.934;2023-06-14T12:19:44;23.40;43.10
35027;DHT22;60696;51.426;6.934;2023-06-14T12:22:10;23.50;43.60
35027;DHT22;60696;51.426;6.934;2023-06-14T12:24:36;23.50;40.40
35027;DHT22;60696;51.426;6.934;2023-06-14T12:27:03;23.60;40.30
35027;DHT22;60696;51.426;6.934;2023-06-14T12:29:30;22.70;42.00
35027;DHT22;60696;51.426;6.934;2023-06-14T12:31:56;23.00;42.90
35027;DHT22;60696;51.426;6.934;2023-06-14T12:34:26;23.40;42.50
35027;DHT22;60696;51.426;6.934;2023-06-14T12:36:55;23.80;41.50
35027;DHT22;60696;51.426;6.934;2023-06-14T12:39:22;23.50;41.20
35027;DHT22;60696;51.426;6.934;2023-06-14T12:41:48;23.10;41.60
35027;DHT22;60696;51.426;6.934;2023-06-14T12:44:14;23.40;40.70
35027;DHT22;60696;51.426;6.934;2023-06-14T12:46:41;23.80;41.40
35027;DHT22;60696;51.426;6.934;2023-06-14T12:49:09;23.40;40.90
35027;DHT22;60696;51.426;6.934;2023-06-14T12:51:35;23.40;41.40
35027;DHT22;60696;51.426;6.934;2023-06-14T12:54:00;23.50;40.00
35027;DHT22;60696;51.426;6.934;2023-06-14T12:56:26;23.30;40.40
35027;DHT22;60696;51.426;6.934;2023-06-14T12:58:52;23.60;41.20
35027;DHT22;60696;51.426;6.934;2023-06-14T13:01:18;23.30;41.00
35027;DHT22;60696;51.426;6.934;2023-06-14T13:03:48;23.30;41.00
35027;DHT22;60696;51.426;6.934;2023-06-14T13:06:16;23.30;40.00
35027;DHT22;60696;51.426;6.934;2023-06-14T13:08:41;23.10;40.40
35027;DHT22;60696;51.426;6.934;2023-06-14T13:11:07;23.20;39.90
35027;DHT22;60696;51.426;6.934;2023-06-14T13:13:33;23.20;39.70
35027;DHT22;60696;51.426;6.934;2023-06-14T13:15:58;23.30;40.30
35027;DHT22;60696;51.426;6.934;2023-06-14T13:18:26;23.40;39.60
35027;DHT22;60696;51.426;6.934;2023-06-14T13:20:52;23.60;40.60
35027;DHT22;60696;51.426;6.934;2023-06-14T13:23:18;23.70;41.20
35027;DHT22;60696;51.426;6.934;2023-06-14T13:25:44;23.40;40.30
35027;DHT22;60696;51.426;6.934;2023-06-14T13:28:09;23.10;40.80
35027;DHT22;60696;51.426;6.934;2023-06-14T13:30:35;23.30;41.60
35027;DHT22;60696;51.426;6.934;2023-06-14T13:33:01;23.40;40.40
35027;DHT22;60696;51.426;6.934;2023-06-14T13:35:27;23.60;40.40
35027;DHT22;60696;51.426;6.934;2023-06-14T13:37:52;23.30;40.10
35027;DHT22;60696;51.426;6.934;2023-06-14T13:40:18;23.30;40.50
35027;DHT22;60696;51.426;6.934;2023-06-14T13:42:44;23.30;40.90
35027;DHT22;60696;51.426;6.934;2023-06-14T13:45:11;23.30;41.20
35027;DHT22;60696;51.426;6.934;2023-06-14T13:47:37;23.20;41.10
35027;DHT22;60696;51.426;6.934;2023-06-14T13:50:04;23.60;40.90
35027;DHT22;60696;51.426;6.934;2023-06-14T13:52:30;23.90;40.80
35027;DHT22;60696;51.426;6.934;2023-06-14T13:54:56;23.40;39.90
35027;DHT22;60696;51.426;6.934;2023-06-14T13:57:21;23.30;40.00
35027;DHT22;60696;51.426;6.934;2023-06-14T13:59:47;23.40;39.20
35027;DHT22;60696;51.426;6.934;2023-06-14T14:02:14;23.60;41.30
35027;DHT22;60696;51.426;6.934;2023-06-14T14:04:40;23.70;39.60
35027;DHT22;60696;51.426;6.934;2023-06-14T14:07:06;23.80;40.80
35027;DHT22;60696;51.426;6.934;2023-06-14T14:09:33;23.90;40.20
35027;DHT22;60696;51.426;6.934;2023-06-14T14:12:00;23.90;40.00
35027;DHT22;60696;51.426;6.934;2023-06-14T14:14:27;23.90;39.80
35027;DHT22;60696;51.426;6.934;2023-06-14T14:16:53;23.90;39.30
35027;DHT22;60696;51.426;6.934;2023-06-14T14:19:20;23.20;38.60
35027;DHT22;60696;51.426;6.934;2023-06-14T14:21:46;23.20;39.50
35027;DHT22;60696;51.426;6.934;2023-06-14T14:24:12;23.30;39.50
35027;DHT22;60696;51.426;6.934;2023-06-14T14:26:38;23.10;40.20
35027;DHT22;60696;51.426;6.934;2023-06-14T14:29:04;23.30;40.90
35027;DHT22;60696;51.426;6.934;2023-06-14T14:31:30;23.50;40.70
35027;DHT22;60696;51.426;6.934;2023-06-14T14:33:55;23.50;40.00
35027;DHT22;60696;51.426;6.934;2023-06-14T14:36:21;23.50;40.40
35027;DHT22;60696;51.426;6.934;2023-06-14T14:38:47;23.60;40.00
35027;DHT22;60696;51.426;6.934;2023-06-14T14:41:13;23.80;40.80
35027;DHT22;60696;51.426;6.934;2023-06-14T14:43:38;23.60;38.70
35027;DHT22;60696;51.426;6.934;2023-06-14T14:46:04;23.40;39.60
35027;DHT22;60696;51.426;6.934;2023-06-14T14:48:30;23.30;40.30
35027;DHT22;60696;51.426;6.934;2023-06-14T14:50:56;23.40;40.50
35027;DHT22;60696;51.426;6.934;2023-06-14T14:53:21;23.60;40.30
35027;DHT22;60696;51.426;6.934;2023-06-14T14:55:47;23.40;39.30
35027;DHT22;60696;51.426;6.934;2023-06-14T14:58:13;23.30;39.60
35027;DHT22;60696;51.426;6.934;2023-06-14T15:00:42;23.50;40.10
35027;DHT22;60696;51.426;6.934;2023-06-14T15:03:08;23.50;39.20
35027;DHT22;60696;51.426;6.934;2023-06-14T15:05:33;23.30;40.10
35027;DHT22;60696;51.426;6.934;2023-06-14T15:08:00;23.40;40.70
35027;DHT22;60696;51.426;6.934;2023-06-14T15:10:25;23.40;40.30
35027;DHT22;60696;51.426;6.934;2023-06-14T15:12:51;23.30;39.50
35027;DHT22;60696;51.426;6.934;2023-06-14T15:15:17;23.30;40.70
35027;DHT22;60696;51.426;6.934;2023-06-14T15:17:42;23.40;40.70
35027;DHT22;60696;51.426;6.934;2023-06-14T15:20:08;23.30;40.10
35027;DHT22;60696;51.426;6.934;2023-06-14T15:22:34;23.30;40.90
35027;DHT22;60696;51.426;6.934;2023-06-14T15:24:59;23.40;40.30
35027;DHT22;60696;51.426;6.934;2023-06-14T15:27:25;23.60;39.70
35027;DHT22;60696;51.426;6.934;2023-06-14T15:29:51;23.70;40.60
35027;DHT22;60696;51.426;6.934;2023-06-14T15:32:16;23.60;38.90
35027;DHT22;60696;51.426;6.934;2023-06-14T15:34:42;23.60;40.20
35027;DHT22;60696;51.426;6.934;2023-06-14T15:37:08;23.50;39.80
35027;DHT22;60696;51.426;6.934;2023-06-14T15:39:33;23.40;39.80
35027;DHT22;60696;51.426;6.934;2023-06-14T15:41:59;23.40;39.80
35027;DHT22;60696;51.426;6.934;2023-06-14T15:44:26;23.40;40.10
35027;DHT22;60696;51.426;6.934;2023-06-14T15:46:52;23.30;39.40
35027;DHT22;60696;51.426;6.934;2023-06-14T15:49:17;23.40;39.40
35027;DHT22;60696;51.426;6.934;2023-06-14T15:51:44;23.40;39.60
35027;DHT22;60696;51.426;6.934;2023-06-14T15:54:10;23.50;39.80
35027;DHT22;60696;51.426;6.934;2023-06-14T15:56:36;23.40;39.80
35027;DHT22;60696;51.426;6.934;2023-06-14T15:59:02;23.40;39.40
35027;DHT22;60696;51.426;6.934;2023-06-14T16:01:28;23.40;39.50
35027;DHT22;60696;51.426;6.934;2023-06-14T16:03:53;23.40;39.70
35027;DHT22;60696;51.426;6.934;2023-06-14T16:06:21;23.50;39.60
35027;DHT22;60696;51.426;6.934;2023-06-14T16:08:47;23.30;39.30
35027;DHT22;60696;51.426;6.934;2023-06-14T16:11:12;23.40;39.00
35027;DHT22;60696;51.426;6.934;2023-06-14T16:13:41;23.40;39.20
35027;DHT22;60696;51.426;6.934;2023-06-14T16:16:07;23.50;39.50
35027;DHT22;60696;51.426;6.934;2023-06-14T16:18:33;23.60;38.50
35027;DHT22;60696;51.426;6.934;2023-06-14T16:20:59;23.50;38.00
35027;DHT22;60696;51.426;6.934;2023-06-14T16:23:25;23.50;39.00
35027;DHT22;60696;51.426;6.934;2023-06-14T16:25:51;23.40;38.10
35027;DHT22;60696;51.426;6.934;2023-06-14T16:28:16;23.40;38.40
35027;DHT22;60696;51.426;6.934;2023-06-14T16:30:42;23.40;38.50
35027;DHT22;60696;51.426;6.934;2023-06-14T16:33:07;23.40;39.00
35027;DHT22;60696;51.426;6.934;2023-06-14T16:35:33;23.50;38.90
35027;DHT22;60696;51.426;6.934;2023-06-14T16:37:59;23.40;39.80
35027;DHT22;60696;51.426;6.934;2023-06-14T16:40:25;23.40;38.90
35027;DHT22;60696;51.426;6.934;2023-06-14T16:42:51;23.40;38.90
35027;DHT22;60696;51.426;6.934;2023-06-14T16:45:16;23.30;37.90
35027;DHT22;60696;51.426;6.934;2023-06-14T16:47:42;23.30;38.40
35027;DHT22;60696;51.426;6.934;2023-06-14T16:50:08;23.30;37.70
35027;DHT22;60696;51.426;6.934;2023-06-14T16:52:34;23.20;38.00
35027;DHT22;60696;51.426;6.934;2023-06-14T16:54:59;23.20;38.00
35027;DHT22;60696;51.426;6.934;2023-06-14T16:57:25;23.20;37.30
35027;DHT22;60696;51.426;6.934;2023-06-14T16:59:51;23.20;37.50
35027;DHT22;60696;51.426;6.934;2023-06-14T17:02:16;23.20;38.90
35027;DHT22;60696;51.426;6.934;2023-06-14T17:04:42;23.20;38.00
35027;DHT22;60696;51.426;6.934;2023-06-14T17:07:08;23.20;38.00
35027;DHT22;60696;51.426;6.934;2023-06-14T17:09:33;23.20;38.50
35027;DHT22;60696;51.426;6.934;2023-06-14T17:11:59;23.00;38.30
35027;DHT22;60696;51.426;6.934;2023-06-14T17:14:24;23.10;38.90
35027;DHT22;60696;51.426;6.934;2023-06-14T17:16:50;23.10;38.40
35027;DHT22;60696;51.426;6.934;2023-06-14T17:19:16;23.10;38.60
35027;DHT22;60696;51.426;6.934;2023-06-14T17:21:42;23.10;38.40
35027;DHT22;60696;51.426;6.934;2023-06-14T17:24:13;23.10;38.40
35027;DHT22;60696;51.426;6.934;2023-06-14T17:26:39;23.10;39.00
35027;DHT22;60696;51.426;6.934;2023-06-14T17:29:04;23.10;38.40
35027;DHT22;60696;51.426;6.934;2023-06-14T17:31:30;22.90;37.80
35027;DHT22;60696;51.426;6.934;2023-06-14T17:33:55;22.90;38.10
35027;DHT22;60696;51.426;6.934;2023-06-14T17:36:21;22.90;38.70
35027;DHT22;60696;51.426;6.934;2023-06-14T17:38:47;22.90;39.10
35027;DHT22;60696;51.426;6.934;2023-06-14T17:41:12;22.90;38.50
35027;DHT22;60696;51.426;6.934;2023-06-14T17:43:39;22.90;38.50
35027;DHT22;60696;51.426;6.934;2023-06-14T17:46:05;23.00;38.80
35027;DHT22;60696;51.426;6.934;2023-06-14T17:48:31;22.90;39.20
35027;DHT22;60696;51.426;6.934;2023-06-14T17:51:05;22.90;39.40
35027;DHT22;60696;51.426;6.934;2023-06-14T17:53:31;22.90;39.70
35027;DHT22;60696;51.426;6.934;2023-06-14T17:55:58;22.90;39.90
35027;DHT22;60696;51.426;6.934;2023-06-14T17:58:24;23.00;40.50
35027;DHT22;60696;51.426;6.934;2023-06-14T18:00:50;22.90;40.30
35027;DHT22;60696;51.426;6.934;2023-06-14T18:03:17;22.90;39.90
35027;DHT22;60696;51.426;6.934;2023-06-14T18:05:43;22.80;40.30
35027;DHT22;60696;51.426;6.934;2023-06-14T18:08:09;22.80;40.00
35027;DHT22;60696;51.426;6.934;2023-06-14T18:10:36;22.70;39.70
35027;DHT22;60696;51.426;6.934;2023-06-14T18:13:02;22.60;39.70
35027;DHT22;60696;51.426;6.934;2023-06-14T18:15:28;22.60;39.30
35027;DHT22;60696;51.426;6.934;2023-06-14T18:17:54;22.60;40.00
35027;DHT22;60696;51.426;6.934;2023-06-14T18:20:21;22.60;39.90
35027;DHT22;60696;51.426;6.934;2023-06-14T18:22:47;22.50;40.10
35027;DHT22;60696;51.426;6.934;2023-06-14T18:25:14;22.60;40.60
35027;DHT22;60696;51.426;6.934;2023-06-14T18:27:40;22.60;40.70
35027;DHT22;60696;51.426;6.934;2023-06-14T18:30:07;22.50;41.00
35027;DHT22;60696;51.426;6.934;2023-06-14T18:32:33;22.50;41.30
35027;DHT22;60696;51.426;6.934;2023-06-14T18:35:00;22.50;41.30
35027;DHT22;60696;51.426;6.934;2023-06-14T18:37:26;22.50;41.40
35027;DHT22;60696;51.426;6.934;2023-06-14T18:39:53;22.40;41.30
35027;DHT22;60696;51.426;6.934;2023-06-14T18:42:19;22.50;41.50
35027;DHT22;60696;51.426;6.934;2023-06-14T18:44:46;22.50;41.40
35027;DHT22;60696;51.426;6.934;2023-06-14T18:47:12;22.30;41.50
35027;DHT22;60696;51.426;6.934;2023-06-14T18:49:39;22.40;41.90
35027;DHT22;60696;51.426;6.934;2023-06-14T18:52:05;22.20;42.30
35027;DHT22;60696;51.426;6.934;2023-06-14T18:54:30;22.20;42.50
35027;DHT22;60696;51.426;6.934;2023-06-14T18:56:56;22.20;43.20
35027;DHT22;60696;51.426;6.934;2023-06-14T18:59:22;22.20;43.30
35027;DHT22;60696;51.426;6.934;2023-06-14T19:01:47;22.10;43.00
35027;DHT22;60696;51.426;6.934;2023-06-14T19:04:13;22.00;43.10
35027;DHT22;60696;51.426;6.934;2023-06-14T19:06:38;22.00;43.20
35027;DHT22;60696;51.426;6.934;2023-06-14T19:09:04;22.00;43.50
35027;DHT22;60696;51.426;6.934;2023-06-14T19:11:30;22.00;43.90
35027;DHT22;60696;51.426;6.934;2023-06-14T19:13:55;22.00;43.60
35027;DHT22;60696;51.426;6.934;2023-06-14T19:16:21;21.90;43.70
35027;DHT22;60696;51.426;6.934;2023-06-14T19:18:47;21.80;44.20
35027;DHT22;60696;51.426;6.934;2023-06-14T19:21:12;21.80;44.10
35027;DHT22;60696;51.426;6.934;2023-06-14T19:23:38;21.80;44.20
35027;DHT22;60696;51.426;6.934;2023-06-14T19:26:04;21.70;44.20
35027;DHT22;60696;51.426;6.934;2023-06-14T19:28:31;21.70;44.50
35027;DHT22;60696;51.426;6.934;2023-06-14T19:30:56;21.70;44.50
35027;DHT22;60696;51.426;6.934;2023-06-14T19:33:22;21.70;44.70
35027;DHT22;60696;51.426;6.934;2023-06-14T19:35:47;21.60;44.90
35027;DHT22;60696;51.426;6.934;2023-06-14T19:38:13;21.60;45.10
35027;DHT22;60696;51.426;6.934;2023-06-14T19:40:39;21.50;45.20
35027;DHT22;60696;51.426;6.934;2023-06-14T19:43:07;21.40;45.50
35027;DHT22;60696;51.426;6.934;2023-06-14T19:45:32;21.40;46.00